sensor_id;sensor_type;location;lat;lon;timestamp;P1;durP1;ratioP1;P2;durP2;ratioP2
3121;SDS011;1571;52.524;14.104;2023-02-28T00:01:26;3.67;;;2.47;;
3121;SDS011;1571;52.524;14.104;2023-02-28T00:03:56;3.10;;;2.10;;
3121;SDS011;1571;52.524;14.104;2023-02-28T00:06:24;6.33;;;2.63;;
3121;SDS011;1571;52.524;14.104;2023-02-28T00:08:53;2.57;;;2.37;;
3121;SDS011;1571;52.524;14.104;2023-02-28T00:11:21;2.97;;;2.20;;
3121;SDS011;1571;52.524;14.104;2023-02-28T00:13:49;2.80;;;2.03;;
3121;SDS011;1571;52.524;14.104;2023-02-28T00:16:18;4.23;;;2.13;;
3121;SDS011;1571;52.524;14.104;2023-02-28T00:18:48;3.70;;;2.30;;
3121;SDS011;1571;52.524;14.104;2023-02-28T00:21:19;3.63;;;3.00;;
3121;SDS011;1571;52.524;14.104;2023-02-28T00:23:47;4.40;;;3.20;;
3121;SDS011;1571;52.524;14.104;2023-02-28T00:26:15;6.00;;;3.10;;
3121;SDS011;1571;52.524;14.104;2023-02-28T00:28:47;4.03;;;2.63;;
3121;SDS011;1571;52.524;14.104;2023-02-28T00:31:16;2.27;;;2.07;;
3121;SDS011;1571;52.524;14.104;2023-02-28T00:33:44;2.93;;;1.93;;
3121;SDS011;1571;52.524;14.104;2023-02-28T00:36:14;2.80;;;2.10;;
3121;SDS011;1571;52.524;14.104;2023-02-28T00:38:43;3.53;;;2.80;;
3121;SDS011;1571;52.524;14.104;2023-02-28T00:41:11;2.80;;;2.60;;
3121;SDS011;1571;52.524;14.104;2023-02-28T00:43:40;5.50;;;3.13;;
3121;SDS011;1571;52.524;14.104;2023-02-28T00:46:10;4.70;;;2.92;;
3121;SDS011;1571;52.524;14.104;2023-02-28T00:48:38;5.70;;;3.67;;
3121;SDS011;1571;52.524;14.104;2023-02-28T00:51:06;3.35;;;2.40;;
3121;SDS011;1571;52.524;14.104;2023-02-28T00:53:34;3.47;;;3.17;;
3121;SDS011;1571;52.524;14.104;2023-02-28T00:56:05;4.15;;;3.20;;
3121;SDS011;1571;52.524;14.104;2023-02-28T00:58:33;7.18;;;2.60;;
3121;SDS011;1571;52.524;14.104;2023-02-28T01:01:01;3.90;;;3.58;;
3121;SDS011;1571;52.524;14.104;2023-02-28T01:03:30;3.53;;;3.23;;
3121;SDS011;1571;52.524;14.104;2023-02-28T01:05:58;5.10;;;3.70;;
3121;SDS011;1571;52.524;14.104;2023-02-28T01:08:26;3.67;;;3.37;;
3121;SDS011;1571;52.524;14.104;2023-02-28T01:10:55;5.00;;;3.00;;
3121;SDS011;1571;52.524;14.104;2023-02-28T01:13:24;4.50;;;2.80;;
3121;SDS011;1571;52.524;14.104;2023-02-28T01:15:55;4.23;;;2.70;;
3121;SDS011;1571;52.524;14.104;2023-02-28T01:18:24;3.53;;;2.80;;
3121;SDS011;1571;52.524;14.104;2023-02-28T01:20:52;5.10;;;3.40;;
3121;SDS011;1571;52.524;14.104;2023-02-28T01:23:21;3.40;;;3.08;;
3121;SDS011;1571;52.524;14.104;2023-02-28T01:25:51;3.70;;;3.15;;
3121;SDS011;1571;52.524;14.104;2023-02-28T01:28:19;3.67;;;3.03;;
3121;SDS011;1571;52.524;14.104;2023-02-28T01:30:50;6.40;;;3.80;;
3121;SDS011;1571;52.524;14.104;2023-02-28T01:33:19;3.83;;;3.50;;
3121;SDS011;1571;52.524;14.104;2023-02-28T01:35:47;3.15;;;2.95;;
3121;SDS011;1571;52.524;14.104;2023-02-28T01:38:16;5.50;;;3.27;;
3121;SDS011;1571;52.524;14.104;2023-02-28T01:40:49;3.77;;;3.37;;
3121;SDS011;1571;52.524;14.104;2023-02-28T01:43:19;5.60;;;3.30;;
3121;SDS011;1571;52.524;14.104;2023-02-28T01:45:51;3.53;;;3.20;;
3121;SDS011;1571;52.524;14.104;2023-02-28T01:48:20;4.23;;;3.43;;
3121;SDS011;1571;52.524;14.104;2023-02-28T01:50:54;3.43;;;3.13;;
3121;SDS011;1571;52.524;14.104;2023-02-28T01:53:25;5.03;;;3.90;;
3121;SDS011;1571;52.524;14.104;2023-02-28T01:55:59;4.50;;;3.90;;
3121;SDS011;1571;52.524;14.104;2023-02-28T01:58:31;3.40;;;3.20;;
3121;SDS011;1571;52.524;14.104;2023-02-28T02:01:01;4.80;;;3.95;;
3121;SDS011;1571;52.524;14.104;2023-02-28T02:03:30;3.97;;;3.30;;
3121;SDS011;1571;52.524;14.104;2023-02-28T02:05:58;6.78;;;4.60;;
3121;SDS011;1571;52.524;14.104;2023-02-28T02:08:28;5.20;;;3.60;;
3121;SDS011;1571;52.524;14.104;2023-02-28T02:10:57;4.10;;;3.67;;
3121;SDS011;1571;52.524;14.104;2023-02-28T02:13:30;3.50;;;3.20;;
3121;SDS011;1571;52.524;14.104;2023-02-28T02:16:15;4.97;;;3.77;;
3121;SDS011;1571;52.524;14.104;2023-02-28T02:18:52;3.70;;;3.10;;
3121;SDS011;1571;52.524;14.104;2023-02-28T02:27:47;5.43;;;3.50;;
3121;SDS011;1571;52.524;14.104;2023-02-28T02:30:41;4.37;;;3.87;;
3121;SDS011;1571;52.524;14.104;2023-02-28T02:36:50;5.50;;;2.40;;
3121;SDS011;1571;52.524;14.104;2023-02-28T02:39:22;3.00;;;2.47;;
3121;SDS011;1571;52.524;14.104;2023-02-28T02:41:59;5.53;;;3.60;;
3121;SDS011;1571;52.524;14.104;2023-02-28T02:44:38;5.33;;;3.80;;
3121;SDS011;1571;52.524;14.104;2023-02-28T02:47:12;5.35;;;3.58;;
3121;SDS011;1571;52.524;14.104;2023-02-28T02:49:45;5.03;;;4.23;;
3121;SDS011;1571;52.524;14.104;2023-02-28T02:52:17;4.00;;;3.10;;
3121;SDS011;1571;52.524;14.104;2023-02-28T02:54:51;5.27;;;4.07;;
3121;SDS011;1571;52.524;14.104;2023-02-28T02:57:25;6.60;;;4.10;;
3121;SDS011;1571;52.524;14.104;2023-02-28T02:59:58;3.23;;;2.93;;
3121;SDS011;1571;52.524;14.104;2023-02-28T03:02:27;4.90;;;3.37;;
3121;SDS011;1571;52.524;14.104;2023-02-28T03:05:02;3.97;;;3.57;;
3121;SDS011;1571;52.524;14.104;2023-02-28T03:07:36;4.10;;;3.70;;
3121;SDS011;1571;52.524;14.104;2023-02-28T03:13:01;6.30;;;4.03;;
3121;SDS011;1571;52.524;14.104;2023-02-28T03:15:57;3.80;;;3.40;;
3121;SDS011;1571;52.524;14.104;2023-02-28T03:18:36;6.23;;;3.20;;
3121;SDS011;1571;52.524;14.104;2023-02-28T03:21:17;5.18;;;3.15;;
3121;SDS011;1571;52.524;14.104;2023-02-28T03:23:52;4.10;;;3.40;;
3121;SDS011;1571;52.524;14.104;2023-02-28T03:26:28;6.47;;;4.07;;
3121;SDS011;1571;52.524;14.104;2023-02-28T03:29:00;4.70;;;4.07;;
3121;SDS011;1571;52.524;14.104;2023-02-28T03:31:32;7.47;;;4.60;;
3121;SDS011;1571;52.524;14.104;2023-02-28T03:34:06;3.13;;;2.90;;
3121;SDS011;1571;52.524;14.104;2023-02-28T03:36:39;5.63;;;5.07;;
3121;SDS011;1571;52.524;14.104;2023-02-28T03:39:13;4.00;;;3.60;;
3121;SDS011;1571;52.524;14.104;2023-02-28T03:41:46;5.87;;;5.30;;
3121;SDS011;1571;52.524;14.104;2023-02-28T03:44:21;7.03;;;3.57;;
3121;SDS011;1571;52.524;14.104;2023-02-28T03:46:54;4.77;;;3.30;;
3121;SDS011;1571;52.524;14.104;2023-02-28T03:49:28;6.23;;;4.17;;
3121;SDS011;1571;52.524;14.104;2023-02-28T03:52:02;4.47;;;3.83;;
3121;SDS011;1571;52.524;14.104;2023-02-28T03:54:35;6.93;;;3.87;;
3121;SDS011;1571;52.524;14.104;2023-02-28T03:57:10;4.30;;;3.43;;
3121;SDS011;1571;52.524;14.104;2023-02-28T03:59:43;6.10;;;4.00;;
3121;SDS011;1571;52.524;14.104;2023-02-28T04:02:15;4.50;;;4.10;;
3121;SDS011;1571;52.524;14.104;2023-02-28T04:04:43;5.97;;;3.80;;
3121;SDS011;1571;52.524;14.104;2023-02-28T04:07:17;6.10;;;4.18;;
3121;SDS011;1571;52.524;14.104;2023-02-28T04:09:45;3.67;;;3.10;;
3121;SDS011;1571;52.524;14.104;2023-02-28T04:12:13;4.20;;;3.30;;
3121;SDS011;1571;52.524;14.104;2023-02-28T04:14:42;3.93;;;3.53;;
3121;SDS011;1571;52.524;14.104;2023-02-28T04:17:10;7.67;;;4.00;;
3121;SDS011;1571;52.524;14.104;2023-02-28T04:19:38;6.20;;;4.10;;
3121;SDS011;1571;52.524;14.104;2023-02-28T04:22:08;5.10;;;4.10;;
3121;SDS011;1571;52.524;14.104;2023-02-28T04:24:38;4.53;;;3.50;;
3121;SDS011;1571;52.524;14.104;2023-02-28T04:27:08;3.87;;;3.50;;
3121;SDS011;1571;52.524;14.104;2023-02-28T04:29:37;4.30;;;3.50;;
3121;SDS011;1571;52.524;14.104;2023-02-28T04:32:05;5.28;;;3.60;;
3121;SDS011;1571;52.524;14.104;2023-02-28T04:34:34;4.90;;;3.63;;
3121;SDS011;1571;52.524;14.104;2023-02-28T04:37:02;9.87;;;4.07;;
3121;SDS011;1571;52.524;14.104;2023-02-28T04:39:41;5.37;;;3.70;;
3121;SDS011;1571;52.524;14.104;2023-02-28T04:42:10;5.80;;;3.50;;
3121;SDS011;1571;52.524;14.104;2023-02-28T04:44:40;5.70;;;4.87;;
3121;SDS011;1571;52.524;14.104;2023-02-28T04:47:08;5.47;;;4.43;;
3121;SDS011;1571;52.524;14.104;2023-02-28T04:49:36;5.53;;;4.22;;
3121;SDS011;1571;52.524;14.104;2023-02-28T04:52:05;4.57;;;3.80;;
3121;SDS011;1571;52.524;14.104;2023-02-28T04:54:34;5.77;;;3.57;;
3121;SDS011;1571;52.524;14.104;2023-02-28T04:57:03;5.13;;;4.23;;
3121;SDS011;1571;52.524;14.104;2023-02-28T04:59:32;14.50;;;4.07;;
3121;SDS011;1571;52.524;14.104;2023-02-28T05:02:01;9.33;;;4.70;;
3121;SDS011;1571;52.524;14.104;2023-02-28T05:04:33;5.27;;;4.40;;
3121;SDS011;1571;52.524;14.104;2023-02-28T05:07:02;6.33;;;4.50;;
3121;SDS011;1571;52.524;14.104;2023-02-28T05:09:31;5.73;;;4.60;;
3121;SDS011;1571;52.524;14.104;2023-02-28T05:11:59;5.67;;;4.63;;
3121;SDS011;1571;52.524;14.104;2023-02-28T05:14:29;7.20;;;4.40;;
3121;SDS011;1571;52.524;14.104;2023-02-28T05:16:57;4.20;;;3.90;;
3121;SDS011;1571;52.524;14.104;2023-02-28T05:19:25;8.07;;;4.00;;
3121;SDS011;1571;52.524;14.104;2023-02-28T05:21:54;5.63;;;4.78;;
3121;SDS011;1571;52.524;14.104;2023-02-28T05:24:23;12.10;;;4.47;;
3121;SDS011;1571;52.524;14.104;2023-02-28T05:26:52;6.30;;;3.87;;
3121;SDS011;1571;52.524;14.104;2023-02-28T05:29:22;4.30;;;3.93;;
3121;SDS011;1571;52.524;14.104;2023-02-28T05:31:51;6.83;;;4.07;;
3121;SDS011;1571;52.524;14.104;2023-02-28T05:34:20;6.53;;;4.17;;
3121;SDS011;1571;52.524;14.104;2023-02-28T05:36:48;4.07;;;3.37;;
3121;SDS011;1571;52.524;14.104;2023-02-28T05:39:16;10.10;;;5.23;;
3121;SDS011;1571;52.524;14.104;2023-02-28T05:41:44;5.85;;;4.28;;
3121;SDS011;1571;52.524;14.104;2023-02-28T05:44:12;5.60;;;4.03;;
3121;SDS011;1571;52.524;14.104;2023-02-28T05:46:40;7.20;;;4.10;;
3121;SDS011;1571;52.524;14.104;2023-02-28T05:49:10;5.33;;;3.50;;
3121;SDS011;1571;52.524;14.104;2023-02-28T05:51:38;4.63;;;4.23;;
3121;SDS011;1571;52.524;14.104;2023-02-28T05:54:07;9.40;;;4.90;;
3121;SDS011;1571;52.524;14.104;2023-02-28T05:56:37;6.40;;;4.67;;
3121;SDS011;1571;52.524;14.104;2023-02-28T05:59:06;11.38;;;4.47;;
3121;SDS011;1571;52.524;14.104;2023-02-28T06:01:35;7.22;;;5.03;;
3121;SDS011;1571;52.524;14.104;2023-02-28T06:04:06;6.93;;;4.77;;
3121;SDS011;1571;52.524;14.104;2023-02-28T06:06:50;6.23;;;4.53;;
3121;SDS011;1571;52.524;14.104;2023-02-28T06:09:18;5.20;;;4.67;;
3121;SDS011;1571;52.524;14.104;2023-02-28T06:11:47;11.53;;;5.37;;
3121;SDS011;1571;52.524;14.104;2023-02-28T06:14:16;7.37;;;6.43;;
3121;SDS011;1571;52.524;14.104;2023-02-28T06:16:45;8.27;;;6.22;;
3121;SDS011;1571;52.524;14.104;2023-02-28T06:19:14;9.27;;;6.63;;
3121;SDS011;1571;52.524;14.104;2023-02-28T06:21:43;9.90;;;6.47;;
3121;SDS011;1571;52.524;14.104;2023-02-28T06:24:13;8.77;;;6.57;;
3121;SDS011;1571;52.524;14.104;2023-02-28T06:26:41;12.23;;;6.33;;
3121;SDS011;1571;52.524;14.104;2023-02-28T06:29:09;7.20;;;5.87;;
3121;SDS011;1571;52.524;14.104;2023-02-28T06:31:38;9.10;;;5.70;;
3121;SDS011;1571;52.524;14.104;2023-02-28T06:34:06;8.27;;;6.00;;
3121;SDS011;1571;52.524;14.104;2023-02-28T06:36:34;7.67;;;5.63;;
3121;SDS011;1571;52.524;14.104;2023-02-28T06:39:03;8.50;;;5.63;;
3121;SDS011;1571;52.524;14.104;2023-02-28T06:41:32;8.10;;;5.00;;
3121;SDS011;1571;52.524;14.104;2023-02-28T06:44:21;6.70;;;5.57;;
3121;SDS011;1571;52.524;14.104;2023-02-28T06:46:49;7.03;;;4.80;;
3121;SDS011;1571;52.524;14.104;2023-02-28T06:49:17;8.10;;;5.10;;
3121;SDS011;1571;52.524;14.104;2023-02-28T06:51:46;6.23;;;5.57;;
3121;SDS011;1571;52.524;14.104;2023-02-28T06:54:14;7.50;;;5.40;;
3121;SDS011;1571;52.524;14.104;2023-02-28T06:56:44;12.87;;;6.47;;
3121;SDS011;1571;52.524;14.104;2023-02-28T06:59:12;16.00;;;9.40;;
3121;SDS011;1571;52.524;14.104;2023-02-28T07:01:40;10.77;;;8.60;;
3121;SDS011;1571;52.524;14.104;2023-02-28T07:04:08;12.10;;;7.90;;
3121;SDS011;1571;52.524;14.104;2023-02-28T07:06:37;10.60;;;8.13;;
3121;SDS011;1571;52.524;14.104;2023-02-28T07:09:05;10.23;;;7.73;;
3121;SDS011;1571;52.524;14.104;2023-02-28T07:11:35;13.47;;;8.17;;
3121;SDS011;1571;52.524;14.104;2023-02-28T07:14:05;12.73;;;8.67;;
3121;SDS011;1571;52.524;14.104;2023-02-28T07:16:33;16.30;;;8.70;;
3121;SDS011;1571;52.524;14.104;2023-02-28T07:19:01;12.00;;;10.60;;
3121;SDS011;1571;52.524;14.104;2023-02-28T07:21:30;15.07;;;10.32;;
3121;SDS011;1571;52.524;14.104;2023-02-28T07:23:58;12.80;;;11.23;;
3121;SDS011;1571;52.524;14.104;2023-02-28T07:26:26;12.97;;;9.40;;
3121;SDS011;1571;52.524;14.104;2023-02-28T07:28:54;14.10;;;10.77;;
3121;SDS011;1571;52.524;14.104;2023-02-28T07:31:24;16.60;;;8.95;;
3121;SDS011;1571;52.524;14.104;2023-02-28T07:33:52;13.57;;;8.83;;
3121;SDS011;1571;52.524;14.104;2023-02-28T07:36:21;10.80;;;8.90;;
3121;SDS011;1571;52.524;14.104;2023-02-28T07:38:49;13.73;;;10.00;;
3121;SDS011;1571;52.524;14.104;2023-02-28T07:41:18;15.40;;;12.27;;
3121;SDS011;1571;52.524;14.104;2023-02-28T07:43:47;17.73;;;11.20;;
3121;SDS011;1571;52.524;14.104;2023-02-28T07:46:16;21.07;;;12.30;;
3121;SDS011;1571;52.524;14.104;2023-02-28T07:48:48;14.77;;;12.13;;
3121;SDS011;1571;52.524;14.104;2023-02-28T07:51:16;16.10;;;11.37;;
3121;SDS011;1571;52.524;14.104;2023-02-28T07:53:44;19.80;;;12.47;;
3121;SDS011;1571;52.524;14.104;2023-02-28T07:56:13;18.03;;;12.00;;
3121;SDS011;1571;52.524;14.104;2023-02-28T07:58:41;16.33;;;13.00;;
3121;SDS011;1571;52.524;14.104;2023-02-28T08:01:09;16.80;;;11.37;;
3121;SDS011;1571;52.524;14.104;2023-02-28T08:03:38;18.20;;;12.93;;
3121;SDS011;1571;52.524;14.104;2023-02-28T08:06:14;18.10;;;12.73;;
3121;SDS011;1571;52.524;14.104;2023-02-28T08:08:44;17.50;;;12.30;;
3121;SDS011;1571;52.524;14.104;2023-02-28T08:11:12;15.27;;;11.20;;
3121;SDS011;1571;52.524;14.104;2023-02-28T08:13:40;17.83;;;11.70;;
3121;SDS011;1571;52.524;14.104;2023-02-28T08:16:11;19.57;;;12.20;;
3121;SDS011;1571;52.524;14.104;2023-02-28T08:18:42;17.02;;;11.68;;
3121;SDS011;1571;52.524;14.104;2023-02-28T08:21:12;16.97;;;12.60;;
3121;SDS011;1571;52.524;14.104;2023-02-28T08:23:40;15.37;;;12.50;;
3121;SDS011;1571;52.524;14.104;2023-02-28T08:26:08;17.83;;;11.30;;
3121;SDS011;1571;52.524;14.104;2023-02-28T08:28:38;17.70;;;12.73;;
3121;SDS011;1571;52.524;14.104;2023-02-28T08:31:09;16.35;;;11.57;;
3121;SDS011;1571;52.524;14.104;2023-02-28T08:33:38;12.57;;;9.60;;
3121;SDS011;1571;52.524;14.104;2023-02-28T08:36:07;19.13;;;10.43;;
3121;SDS011;1571;52.524;14.104;2023-02-28T08:38:38;10.40;;;7.53;;
3121;SDS011;1571;52.524;14.104;2023-02-28T08:41:08;13.43;;;8.00;;
3121;SDS011;1571;52.524;14.104;2023-02-28T08:43:38;11.70;;;8.67;;
3121;SDS011;1571;52.524;14.104;2023-02-28T08:46:08;9.70;;;7.93;;
3121;SDS011;1571;52.524;14.104;2023-02-28T08:48:40;9.17;;;6.90;;
3121;SDS011;1571;52.524;14.104;2023-02-28T08:51:09;8.63;;;7.10;;
3121;SDS011;1571;52.524;14.104;2023-02-28T08:53:40;6.88;;;5.25;;
3121;SDS011;1571;52.524;14.104;2023-02-28T08:56:09;6.32;;;4.25;;
3121;SDS011;1571;52.524;14.104;2023-02-28T08:58:38;6.90;;;5.07;;
3121;SDS011;1571;52.524;14.104;2023-02-28T09:01:08;8.20;;;4.90;;
3121;SDS011;1571;52.524;14.104;2023-02-28T09:03:37;6.97;;;5.23;;
3121;SDS011;1571;52.524;14.104;2023-02-28T09:06:05;10.27;;;6.70;;
3121;SDS011;1571;52.524;14.104;2023-02-28T09:08:34;6.50;;;5.80;;
3121;SDS011;1571;52.524;14.104;2023-02-28T09:11:04;10.53;;;6.17;;
3121;SDS011;1571;52.524;14.104;2023-02-28T09:13:33;6.70;;;5.57;;
3121;SDS011;1571;52.524;14.104;2023-02-28T09:16:02;6.23;;;5.50;;
3121;SDS011;1571;52.524;14.104;2023-02-28T09:18:33;6.67;;;4.13;;
3121;SDS011;1571;52.524;14.104;2023-02-28T09:21:03;9.77;;;5.03;;
3121;SDS011;1571;52.524;14.104;2023-02-28T09:23:32;11.87;;;5.50;;
3121;SDS011;1571;52.524;14.104;2023-02-28T09:26:00;6.33;;;3.13;;
3121;SDS011;1571;52.524;14.104;2023-02-28T09:28:30;3.93;;;3.37;;
3121;SDS011;1571;52.524;14.104;2023-02-28T09:30:58;6.20;;;3.25;;
3121;SDS011;1571;52.524;14.104;2023-02-28T09:33:27;4.43;;;3.50;;
3121;SDS011;1571;52.524;14.104;2023-02-28T09:35:57;4.67;;;3.20;;
3121;SDS011;1571;52.524;14.104;2023-02-28T09:38:27;5.32;;;3.42;;
3121;SDS011;1571;52.524;14.104;2023-02-28T09:40:57;6.53;;;3.87;;
3121;SDS011;1571;52.524;14.104;2023-02-28T09:43:28;4.20;;;2.67;;
3121;SDS011;1571;52.524;14.104;2023-02-28T09:46:03;3.70;;;2.00;;
3121;SDS011;1571;52.524;14.104;2023-02-28T09:48:39;2.53;;;2.33;;
3121;SDS011;1571;52.524;14.104;2023-02-28T09:51:15;3.03;;;1.33;;
3121;SDS011;1571;52.524;14.104;2023-02-28T09:53:56;2.08;;;1.75;;
3121;SDS011;1571;52.524;14.104;2023-02-28T09:56:30;6.60;;;2.10;;
3121;SDS011;1571;52.524;14.104;2023-02-28T09:59:05;4.23;;;2.07;;
3121;SDS011;1571;52.524;14.104;2023-02-28T10:01:43;5.97;;;1.97;;
3121;SDS011;1571;52.524;14.104;2023-02-28T10:04:24;2.28;;;2.08;;
3121;SDS011;1571;52.524;14.104;2023-02-28T10:07:06;3.30;;;1.73;;
3121;SDS011;1571;52.524;14.104;2023-02-28T10:09:46;3.10;;;1.40;;
3121;SDS011;1571;52.524;14.104;2023-02-28T10:12:19;3.47;;;2.90;;
3121;SDS011;1571;52.524;14.104;2023-02-28T10:14:50;3.40;;;2.47;;
3121;SDS011;1571;52.524;14.104;2023-02-28T10:17:21;2.35;;;1.75;;
3121;SDS011;1571;52.524;14.104;2023-02-28T10:19:55;3.73;;;2.80;;
3121;SDS011;1571;52.524;14.104;2023-02-28T10:22:35;3.13;;;1.63;;
3121;SDS011;1571;52.524;14.104;2023-02-28T10:25:16;4.37;;;2.90;;
3121;SDS011;1571;52.524;14.104;2023-02-28T10:27:46;2.77;;;1.40;;
3121;SDS011;1571;52.524;14.104;2023-02-28T10:30:16;1.63;;;1.40;;
3121;SDS011;1571;52.524;14.104;2023-02-28T10:32:45;2.43;;;1.67;;
3121;SDS011;1571;52.524;14.104;2023-02-28T10:35:20;2.70;;;1.80;;
3121;SDS011;1571;52.524;14.104;2023-02-28T10:37:51;2.13;;;1.30;;
3121;SDS011;1571;52.524;14.104;2023-02-28T10:40:27;1.90;;;1.73;;
3121;SDS011;1571;52.524;14.104;2023-02-28T10:42:59;1.70;;;1.60;;
3121;SDS011;1571;52.524;14.104;2023-02-28T10:45:31;1.92;;;1.70;;
3121;SDS011;1571;52.524;14.104;2023-02-28T10:48:02;2.90;;;1.80;;
3121;SDS011;1571;52.524;14.104;2023-02-28T10:50:33;2.60;;;2.37;;
3121;SDS011;1571;52.524;14.104;2023-02-28T10:53:14;4.20;;;2.40;;
3121;SDS011;1571;52.524;14.104;2023-02-28T10:55:55;5.90;;;3.77;;
3121;SDS011;1571;52.524;14.104;2023-02-28T10:58:26;4.30;;;2.67;;
3121;SDS011;1571;52.524;14.104;2023-02-28T11:00:57;3.40;;;3.07;;
3121;SDS011;1571;52.524;14.104;2023-02-28T11:03:30;3.53;;;2.90;;
3121;SDS011;1571;52.524;14.104;2023-02-28T11:06:04;2.97;;;2.17;;
3121;SDS011;1571;52.524;14.104;2023-02-28T11:08:34;3.63;;;3.03;;
3121;SDS011;1571;52.524;14.104;2023-02-28T11:11:13;6.83;;;3.27;;
3121;SDS011;1571;52.524;14.104;2023-02-28T11:13:43;7.00;;;3.37;;
3121;SDS011;1571;52.524;14.104;2023-02-28T11:16:14;5.30;;;3.20;;
3121;SDS011;1571;52.524;14.104;2023-02-28T11:18:46;3.23;;;2.90;;
3121;SDS011;1571;52.524;14.104;2023-02-28T11:21:21;4.43;;;2.60;;
3121;SDS011;1571;52.524;14.104;2023-02-28T11:23:55;4.77;;;2.40;;
3121;SDS011;1571;52.524;14.104;2023-02-28T11:26:36;1.97;;;1.70;;
3121;SDS011;1571;52.524;14.104;2023-02-28T11:29:10;3.42;;;2.17;;
3121;SDS011;1571;52.524;14.104;2023-02-28T11:31:45;2.13;;;1.53;;
3121;SDS011;1571;52.524;14.104;2023-02-28T11:34:30;1.57;;;1.47;;
3121;SDS011;1571;52.524;14.104;2023-02-28T11:36:59;2.53;;;1.40;;
3121;SDS011;1571;52.524;14.104;2023-02-28T11:39:32;2.33;;;1.60;;
3121;SDS011;1571;52.524;14.104;2023-02-28T11:42:11;2.07;;;1.80;;
3121;SDS011;1571;52.524;14.104;2023-02-28T11:44:53;4.30;;;1.95;;
3121;SDS011;1571;52.524;14.104;2023-02-28T11:47:34;2.53;;;1.63;;
3121;SDS011;1571;52.524;14.104;2023-02-28T11:50:14;1.80;;;1.70;;
3121;SDS011;1571;52.524;14.104;2023-02-28T11:52:48;3.10;;;1.80;;
3121;SDS011;1571;52.524;14.104;2023-02-28T11:55:21;1.73;;;1.50;;
3121;SDS011;1571;52.524;14.104;2023-02-28T11:58:00;2.10;;;1.90;;
3121;SDS011;1571;52.524;14.104;2023-02-28T12:00:49;1.92;;;1.75;;
3121;SDS011;1571;52.524;14.104;2023-02-28T12:03:33;2.60;;;1.67;;
3121;SDS011;1571;52.524;14.104;2023-02-28T12:06:14;3.10;;;1.70;;
3121;SDS011;1571;52.524;14.104;2023-02-28T12:08:53;2.33;;;2.13;;
3121;SDS011;1571;52.524;14.104;2023-02-28T12:11:33;3.17;;;1.83;;
3121;SDS011;1571;52.524;14.104;2023-02-28T12:14:18;2.53;;;2.20;;
3121;SDS011;1571;52.524;14.104;2023-02-28T12:17:13;4.30;;;2.63;;
3121;SDS011;1571;52.524;14.104;2023-02-28T12:19:53;4.83;;;2.90;;
3121;SDS011;1571;52.524;14.104;2023-02-28T12:22:35;4.30;;;2.20;;
3121;SDS011;1571;52.524;14.104;2023-02-28T12:28:08;3.40;;;2.37;;
3121;SDS011;1571;52.524;14.104;2023-02-28T12:30:39;4.10;;;3.27;;
3121;SDS011;1571;52.524;14.104;2023-02-28T12:33:14;4.67;;;3.27;;
3121;SDS011;1571;52.524;14.104;2023-02-28T12:35:47;3.03;;;2.80;;
3121;SDS011;1571;52.524;14.104;2023-02-28T12:38:19;5.50;;;3.33;;
3121;SDS011;1571;52.524;14.104;2023-02-28T12:40:50;5.23;;;3.70;;
3121;SDS011;1571;52.524;14.104;2023-02-28T12:43:22;4.65;;;3.30;;
3121;SDS011;1571;52.524;14.104;2023-02-28T12:45:57;5.73;;;4.10;;
3121;SDS011;1571;52.524;14.104;2023-02-28T12:48:29;5.33;;;3.73;;
3121;SDS011;1571;52.524;14.104;2023-02-28T12:51:06;3.80;;;2.83;;
3121;SDS011;1571;52.524;14.104;2023-02-28T12:53:39;3.65;;;3.35;;
3121;SDS011;1571;52.524;14.104;2023-02-28T12:56:16;5.20;;;3.60;;
3121;SDS011;1571;52.524;14.104;2023-02-28T12:58:50;4.80;;;3.25;;
3121;SDS011;1571;52.524;14.104;2023-02-28T13:01:27;5.80;;;3.47;;
3121;SDS011;1571;52.524;14.104;2023-02-28T13:10:43;5.67;;;3.23;;
3121;SDS011;1571;52.524;14.104;2023-02-28T13:13:14;5.17;;;4.67;;
3121;SDS011;1571;52.524;14.104;2023-02-28T13:15:56;4.77;;;4.30;;
3121;SDS011;1571;52.524;14.104;2023-02-28T13:18:30;5.17;;;4.27;;
3121;SDS011;1571;52.524;14.104;2023-02-28T13:21:00;6.37;;;4.33;;
3121;SDS011;1571;52.524;14.104;2023-02-28T13:29:32;4.23;;;3.83;;
3121;SDS011;1571;52.524;14.104;2023-02-28T13:32:19;5.67;;;4.13;;
3121;SDS011;1571;52.524;14.104;2023-02-28T13:44:12;8.27;;;4.07;;
3121;SDS011;1571;52.524;14.104;2023-02-28T13:49:50;5.77;;;4.40;;
3121;SDS011;1571;52.524;14.104;2023-02-28T13:52:20;5.00;;;4.20;;
3121;SDS011;1571;52.524;14.104;2023-02-28T13:54:54;6.60;;;4.40;;
3121;SDS011;1571;52.524;14.104;2023-02-28T13:57:40;5.03;;;3.63;;
3121;SDS011;1571;52.524;14.104;2023-02-28T14:00:20;4.97;;;3.93;;
3121;SDS011;1571;52.524;14.104;2023-02-28T14:03:03;13.30;;;4.83;;
3121;SDS011;1571;52.524;14.104;2023-02-28T14:05:41;3.80;;;3.50;;
3121;SDS011;1571;52.524;14.104;2023-02-28T14:08:12;6.10;;;4.33;;
3121;SDS011;1571;52.524;14.104;2023-02-28T14:10:44;5.50;;;4.27;;
3121;SDS011;1571;52.524;14.104;2023-02-28T14:16:11;6.63;;;4.50;;
3121;SDS011;1571;52.524;14.104;2023-02-28T14:18:42;7.00;;;5.55;;
3121;SDS011;1571;52.524;14.104;2023-02-28T14:21:21;4.23;;;3.60;;
3121;SDS011;1571;52.524;14.104;2023-02-28T14:27:02;6.43;;;3.73;;
3121;SDS011;1571;52.524;14.104;2023-02-28T14:29:59;5.30;;;4.20;;
3121;SDS011;1571;52.524;14.104;2023-02-28T14:32:41;5.60;;;3.90;;
3121;SDS011;1571;52.524;14.104;2023-02-28T14:35:19;5.80;;;4.40;;
3121;SDS011;1571;52.524;14.104;2023-02-28T14:37:58;5.10;;;4.30;;
3121;SDS011;1571;52.524;14.104;2023-02-28T14:40:27;6.27;;;4.00;;
3121;SDS011;1571;52.524;14.104;2023-02-28T14:42:58;4.30;;;3.33;;
3121;SDS011;1571;52.524;14.104;2023-02-28T14:45:29;3.70;;;3.30;;
3121;SDS011;1571;52.524;14.104;2023-02-28T14:47:58;5.47;;;3.87;;
3121;SDS011;1571;52.524;14.104;2023-02-28T14:50:29;4.10;;;3.00;;
3121;SDS011;1571;52.524;14.104;2023-02-28T14:53:01;5.87;;;4.10;;
3121;SDS011;1571;52.524;14.104;2023-02-28T14:55:30;3.97;;;3.55;;
3121;SDS011;1571;52.524;14.104;2023-02-28T14:58:00;4.63;;;3.73;;
3121;SDS011;1571;52.524;14.104;2023-02-28T15:00:31;5.17;;;3.90;;
3121;SDS011;1571;52.524;14.104;2023-02-28T15:03:00;4.57;;;3.97;;
3121;SDS011;1571;52.524;14.104;2023-02-28T15:05:51;4.30;;;3.30;;
3121;SDS011;1571;52.524;14.104;2023-02-28T15:08:22;4.72;;;3.38;;
3121;SDS011;1571;52.524;14.104;2023-02-28T15:10:51;5.50;;;3.70;;
3121;SDS011;1571;52.524;14.104;2023-02-28T15:13:22;4.43;;;2.87;;
3121;SDS011;1571;52.524;14.104;2023-02-28T15:15:52;4.27;;;3.87;;
3121;SDS011;1571;52.524;14.104;2023-02-28T15:18:32;3.00;;;2.70;;
3121;SDS011;1571;52.524;14.104;2023-02-28T15:21:10;2.97;;;2.70;;
3121;SDS011;1571;52.524;14.104;2023-02-28T15:23:45;3.97;;;3.00;;
3121;SDS011;1571;52.524;14.104;2023-02-28T15:26:17;5.07;;;2.57;;
3121;SDS011;1571;52.524;14.104;2023-02-28T15:28:49;5.67;;;4.00;;
3121;SDS011;1571;52.524;14.104;2023-02-28T15:31:21;3.93;;;3.03;;
3121;SDS011;1571;52.524;14.104;2023-02-28T15:33:54;4.13;;;3.73;;
3121;SDS011;1571;52.524;14.104;2023-02-28T15:36:25;4.50;;;3.43;;
3121;SDS011;1571;52.524;14.104;2023-02-28T15:39:00;2.60;;;2.33;;
3121;SDS011;1571;52.524;14.104;2023-02-28T15:41:41;5.33;;;3.20;;
3121;SDS011;1571;52.524;14.104;2023-02-28T15:44:13;3.87;;;3.57;;
3121;SDS011;1571;52.524;14.104;2023-02-28T15:46:44;3.30;;;2.73;;
3121;SDS011;1571;52.524;14.104;2023-02-28T15:49:21;4.13;;;2.97;;
3121;SDS011;1571;52.524;14.104;2023-02-28T15:51:51;4.57;;;3.17;;
3121;SDS011;1571;52.524;14.104;2023-02-28T15:54:27;7.40;;;4.40;;
3121;SDS011;1571;52.524;14.104;2023-02-28T15:56:57;4.40;;;2.57;;
3121;SDS011;1571;52.524;14.104;2023-02-28T15:59:31;3.37;;;2.90;;
3121;SDS011;1571;52.524;14.104;2023-02-28T16:04:55;2.93;;;2.53;;
3121;SDS011;1571;52.524;14.104;2023-02-28T16:07:41;4.20;;;2.80;;
3121;SDS011;1571;52.524;14.104;2023-02-28T16:10:12;6.03;;;3.20;;
3121;SDS011;1571;52.524;14.104;2023-02-28T16:12:41;2.53;;;2.33;;
3121;SDS011;1571;52.524;14.104;2023-02-28T16:15:16;3.47;;;3.17;;
3121;SDS011;1571;52.524;14.104;2023-02-28T16:17:46;4.00;;;2.77;;